AirNav   Pilot Hours Calculator
 
 1337 users online  

GA99 Miami Valley Farm Airport
Fort Valley, Georgia, USA

GOING TO FORT VALLEY?


FAA INFORMATION EFFECTIVE 15 AUGUST 2019

Location

FAA Identifier: GA99
Lat/Long: 32-32-55.5310N 083-48-06.6670W
32-32.925517N 083-48.111117W
32.5487586,-83.8018519
(estimated)
Elevation: 468 ft. / 142.6 m (surveyed)
Variation: 02W (1985)
From city: 4 miles E of FORT VALLEY, GA
Time zone: UTC -4 (UTC -5 during Standard Time)
Zip code: 31030

Airport Operations

Airport use: Private use. Permission required prior to landing
Activation date: 07/1974
Control tower: no
ARTCC: ATLANTA CENTER
FSS: MACON FLIGHT SERVICE STATION
Attendance: UNATNDD
Wind indicator: yes
Segmented circle: no

Airport Communications

WX AWOS-3 at PXE (2.9 nm SE): 123.825 (478-987-8768)
WX ASOS at MCN (12 nm NE): 120.775 (478-784-8825)

Nearby radio navigation aids

VOR radial/distance  VOR name  Freq  Var
MCNr221/11.6MACON VORTAC114.2001E
VNAr322/25.4VIENNA VORTAC116.5001E

 
NDB name  Hdg/Dist  Freq  Var  ID
MONTEZUMA048/15.142604WIZS .. --.. ...
LINDBERGH039/27.324204WLKG .-.. -.- --.
CONEY011/33.240006WOHY --- .... -.--

Airport Services

Airframe service: NONE
Powerplant service: NONE

Runway Information

Runway 18/36

Dimensions: 3600 x 75 ft. / 1097 x 23 m
Surface: turf
Operational restrictions: 600' AGL - WEST PATTERN.
RUNWAY 18  RUNWAY 36
Traffic pattern: rightleft
Obstructions: 50 ft. pline, 50 ft. from runwaynone

Airport Ownership and Management from official FAA records

Ownership: Privately-owned
Owner: W. H. DAVIDSON, III
10151 MIAMI VALLEY RD.
FT VALLEY, GA 31030
Phone 478-825-4038
Manager: W. H. DAVIDSON, III
10151 MIAMI VALLEY RD.
FORT VALLEY, GA 31030
Phone 912-825-2355

Airport Operational Statistics

Aircraft based on the field: 1
Single engine airplanes: 1
    

Additional Remarks

USE AT YOUR OWN RISK
FOR CD CTC ATLANTA APCH AT 678-364-6132, WHEN APCH CLSD CTC ATLANTA ARTCC AT 770-210-7692.

Instrument Procedures

There are no published instrument procedures at GA99.

Some nearby airports with instrument procedures:

KPXE - Perry-Houston County Airport (3 nm SE)
KMCN - Middle Georgia Regional Airport (12 nm NE)
KWRB - Robins Air Force Base (12 nm NE)
53A - Dr. C P Savage Sr. Airport (18 nm SW)
KMAC - Macon Downtown Airport (20 nm NE)
 
Loc | Ops | Rwys | IFR | FBO | Links
Com | Nav | Svcs | Stats | Notes
Area around GA99 (Miami Valley Farm Airport)
 
Road maps at: MapQuest Bing Google
 
Aerial photo
No photo
 
Sectional chart

 
Airport distance calculator
Flying to Miami Valley Farm Airport? Find the distance to fly.

From to GA99

Sunrise and sunset
Times for 22-Aug-2019
 Local
(UTC-4)
 Zulu
(UTC)
Morning civil twilight06:3910:39
Sunrise07:0511:05
Sunset20:1200:12
Evening civil twilight20:3700:37

Current date and time
Zulu (UTC)  22-Aug-2019 21:16:26
Local (UTC-4)  22-Aug-2019 17:16:26
 
METAR
KPXE 
3nm SE 
222055Z AUTO 18005G15KT 10SM SCT055 33/21 A3000 RMK AO2 T03350211
KMCN 
11nm NE 
222053Z 18007KT 10SM FEW060 34/19 A2999 RMK AO2 SLP148 T03440194 56024
KWRB 
12nm E 
222056Z 21007KT 10SM FEW060 35/20 A2998 RMK AO2A DZB04E12 SLP151 P0000 60000 T03480199 57024
TAF
KMCN 
11nm NE 
221733Z 2218/2318 23006KT P6SM FEW050 FM222100 20006KT P6SM VCSH SCT050 FM230100 18004KT P6SM SCT050 SCT250 FM231500 VRB03KT P6SM FEW035
KWRB 
12nm E 
221300Z 2213/2319 VRB06KT 9999 FEW065 QNH3004INS BECMG 2217/2218 21009KT 9999 NSW BKN055 QNH2997INS BECMG 2223/2224 VRB06KT 9999 FEW055 QNH2999INS BECMG 2311/2312 VRB06KT 4800 BR SCT009 QNH3003INS BECMG 2315/2316 VRB06KT 9999 NSW FEW030 QNH3006INS TEMPO 2318/2319 21020G30KT 9000 -TSRA FEW030CB SCT045 BKN065 TX34/2220Z TN23/2311Z
NOTAMs
Click for the latest NOTAMs
NOTAMs are issued by the DoD/FAA and will open in a separate window not controlled by AirNav.

 

 
 

Would you like to see your business listed on this page?

 If your business provides an interesting product or service to pilots, flight crews, aircraft, or users of the Miami Valley Farm Airport, you should consider listing it here.  To start the listing process, click on the button below
 
Add a business
 

Other Pages about Miami Valley Farm Airport

Update a link
 
Copyright © AirNav, LLC. All rights reserved. Privacy Policy  Contact